createdAt,value
2023-05-22T00:00:22.997Z,26.77
2023-05-22T00:01:23.010Z,26.77
2023-05-22T00:02:23.166Z,26.75
2023-05-22T00:03:23.120Z,26.74
2023-05-22T00:04:23.089Z,26.77
2023-05-22T00:05:23.135Z,26.74
2023-05-22T00:06:23.097Z,26.75
2023-05-22T00:07:23.101Z,26.75
2023-05-22T00:08:23.100Z,26.74
2023-05-22T00:09:23.086Z,26.77
2023-05-22T00:10:23.097Z,26.75
2023-05-22T00:11:23.098Z,26.74
2023-05-22T00:12:23.095Z,26.72
2023-05-22T00:13:23.123Z,26.71
2023-05-22T00:14:23.100Z,26.71
2023-05-22T00:15:23.103Z,26.74
2023-05-22T00:16:23.120Z,26.72
2023-05-22T00:17:23.161Z,26.70
2023-05-22T00:18:23.111Z,26.70
2023-05-22T00:19:23.443Z,26.71
2023-05-22T00:20:23.128Z,26.70
2023-05-22T00:21:23.123Z,26.70
2023-05-22T00:22:23.130Z,26.70
2023-05-22T00:23:23.158Z,26.70
2023-05-22T00:24:23.135Z,26.70
2023-05-22T00:25:23.134Z,26.68
2023-05-22T00:26:23.139Z,26.71
2023-05-22T00:27:23.148Z,26.71
2023-05-22T00:28:23.143Z,26.68
2023-05-22T00:29:23.184Z,26.68
2023-05-22T00:30:23.160Z,26.67
2023-05-22T00:31:23.183Z,26.70
2023-05-22T00:32:23.273Z,26.65
2023-05-22T00:33:23.187Z,26.67
2023-05-22T00:34:23.226Z,26.67
2023-05-22T00:35:23.229Z,26.65
2023-05-22T00:36:23.216Z,26.65
2023-05-22T00:37:23.276Z,26.65
2023-05-22T00:38:23.242Z,26.65
2023-05-22T00:39:23.243Z,26.67
2023-05-22T00:40:23.254Z,26.65
2023-05-22T00:41:23.277Z,26.64
2023-05-22T00:42:23.301Z,26.65
2023-05-22T00:43:23.283Z,26.65
2023-05-22T00:44:23.313Z,26.64
2023-05-22T00:45:23.349Z,26.64
2023-05-22T00:46:23.349Z,26.64
2023-05-22T00:47:23.444Z,26.62
2023-05-22T00:48:23.346Z,26.62
2023-05-22T00:49:23.364Z,26.64
2023-05-22T00:50:23.362Z,26.64
2023-05-22T00:51:23.389Z,26.61
2023-05-22T00:52:23.388Z,26.62
2023-05-22T00:53:23.391Z,26.62
2023-05-22T00:54:23.418Z,26.62
2023-05-22T00:55:23.425Z,26.61
2023-05-22T00:56:23.435Z,26.59
2023-05-22T00:57:23.464Z,26.62
2023-05-22T00:58:23.473Z,26.65
2023-05-22T00:59:23.498Z,26.62
2023-05-22T01:00:23.503Z,26.62
2023-05-22T01:01:23.600Z,26.61
2023-05-22T01:02:23.547Z,26.61
2023-05-22T01:03:23.660Z,26.61
2023-05-22T01:04:23.561Z,26.59
2023-05-22T01:05:23.572Z,26.59
2023-05-22T01:06:23.578Z,26.61
2023-05-22T01:07:23.598Z,26.61
2023-05-22T01:08:23.625Z,26.61
2023-05-22T01:09:23.625Z,26.62
2023-05-22T01:10:23.645Z,26.59
2023-05-22T01:11:23.655Z,26.59
2023-05-22T01:12:23.676Z,26.58
2023-05-22T01:13:23.711Z,26.58
2023-05-22T01:14:23.725Z,26.58
2023-05-22T01:15:23.755Z,26.61
2023-05-22T01:16:23.814Z,26.61
2023-05-22T01:17:23.941Z,26.58
2023-05-22T01:18:23.815Z,26.59
2023-05-22T01:19:23.912Z,26.58
2023-05-22T01:20:23.904Z,26.58
2023-05-22T01:21:23.896Z,26.58
2023-05-22T01:22:23.904Z,26.59
2023-05-22T01:23:23.929Z,26.58
2023-05-22T01:24:23.938Z,26.58
2023-05-22T01:25:23.957Z,26.58
2023-05-22T01:26:23.970Z,26.58
2023-05-22T01:27:23.991Z,26.56
2023-05-22T01:28:24.006Z,26.58
2023-05-22T01:29:24.026Z,26.56
2023-05-22T01:30:24.043Z,26.58
2023-05-22T01:31:24.058Z,26.58
2023-05-22T01:32:24.125Z,26.56
2023-05-22T01:33:24.216Z,26.54
2023-05-22T01:34:24.115Z,26.56
2023-05-22T01:35:24.135Z,26.55
2023-05-22T01:36:24.151Z,26.54
2023-05-22T01:37:24.182Z,26.55
2023-05-22T01:38:24.179Z,26.55
2023-05-22T01:39:24.204Z,26.54
2023-05-22T01:40:24.236Z,26.54
2023-05-22T01:41:24.244Z,26.56
2023-05-22T01:42:24.275Z,26.56
2023-05-22T01:43:24.295Z,26.55
2023-05-22T01:44:24.354Z,26.55
2023-05-22T01:45:24.352Z,26.55
2023-05-22T01:46:24.471Z,26.55
2023-05-22T01:47:24.441Z,26.54
2023-05-22T01:48:24.441Z,26.55
2023-05-22T01:49:24.481Z,26.54
2023-05-22T01:50:24.457Z,26.54
2023-05-22T01:51:24.473Z,26.55
2023-05-22T01:52:24.503Z,26.52
2023-05-22T01:53:24.528Z,26.56
2023-05-22T01:54:24.565Z,26.52
2023-05-22T01:55:24.582Z,26.55
2023-05-22T01:56:24.623Z,26.55
2023-05-22T01:57:24.639Z,26.52
2023-05-22T01:58:24.692Z,26.54
2023-05-22T01:59:24.688Z,26.52
2023-05-22T02:00:24.713Z,26.50
2023-05-22T02:01:24.770Z,26.51
2023-05-22T02:02:24.904Z,26.52
2023-05-22T02:03:24.959Z,26.51
2023-05-22T02:04:24.823Z,26.51
2023-05-22T02:05:24.881Z,26.52
2023-05-22T02:06:24.889Z,26.52
2023-05-22T02:07:24.951Z,26.51
2023-05-22T02:08:24.953Z,26.51
2023-05-22T02:09:24.965Z,26.51
2023-05-22T02:10:24.990Z,26.50
2023-05-22T02:11:25.016Z,26.50
2023-05-22T02:12:25.054Z,26.50
2023-05-22T02:13:25.075Z,26.51
2023-05-22T02:14:25.087Z,26.52
2023-05-22T02:15:25.133Z,26.48
2023-05-22T02:16:25.199Z,26.51
2023-05-22T02:17:25.162Z,26.48
2023-05-22T02:18:25.190Z,26.51
2023-05-22T02:19:25.320Z,26.48
2023-05-22T02:20:25.243Z,26.50
2023-05-22T02:21:25.380Z,26.50
2023-05-22T02:22:25.296Z,26.47
2023-05-22T02:23:25.322Z,26.47
2023-05-22T02:24:25.347Z,26.48
2023-05-22T02:25:25.379Z,26.50
2023-05-22T02:26:25.403Z,26.50
2023-05-22T02:27:25.418Z,26.50
2023-05-22T02:28:25.447Z,26.50
2023-05-22T02:29:25.472Z,26.48
2023-05-22T02:30:25.498Z,26.48
2023-05-22T02:31:25.599Z,26.47
2023-05-22T02:32:25.588Z,26.47
2023-05-22T02:33:25.601Z,26.47
2023-05-22T02:34:25.616Z,26.50
2023-05-22T02:35:25.659Z,26.45
2023-05-22T02:36:25.686Z,26.45
2023-05-22T02:37:25.780Z,26.45
2023-05-22T02:38:26.627Z,26.47
2023-05-22T02:39:26.780Z,26.48
2023-05-22T02:40:25.827Z,26.48
2023-05-22T02:41:25.850Z,26.45
2023-05-22T02:42:25.879Z,26.48
2023-05-22T02:43:25.905Z,26.47
2023-05-22T02:44:24.950Z,26.47
2023-05-22T02:45:25.994Z,26.45
2023-05-22T02:46:26.078Z,26.44
2023-05-22T02:47:26.063Z,26.44
2023-05-22T02:48:26.090Z,26.45
2023-05-22T02:49:26.122Z,26.45
2023-05-22T02:50:26.167Z,26.47
2023-05-22T02:51:26.196Z,26.44
2023-05-22T02:52:26.225Z,26.45
2023-05-22T02:53:26.294Z,26.45
2023-05-22T02:54:26.285Z,26.44
2023-05-22T02:55:26.334Z,26.43
2023-05-22T02:56:26.359Z,26.44
2023-05-22T02:57:26.390Z,26.45
2023-05-22T02:58:26.423Z,26.44
2023-05-22T02:59:26.459Z,26.44
2023-05-22T03:00:26.502Z,26.45
2023-05-22T03:01:26.666Z,26.44
2023-05-22T03:02:26.680Z,26.43
2023-05-22T03:03:26.703Z,26.44
2023-05-22T03:04:26.640Z,26.44
2023-05-22T03:05:26.675Z,26.43
2023-05-22T03:06:26.709Z,26.43
2023-05-22T03:07:26.752Z,26.43
2023-05-22T03:08:26.791Z,26.44
2023-05-22T03:09:26.942Z,26.44
2023-05-22T03:10:26.885Z,26.40
2023-05-22T03:11:26.911Z,26.41
2023-05-22T03:12:27.006Z,26.40
2023-05-22T03:13:27.097Z,26.41
2023-05-22T03:14:27.020Z,26.43
2023-05-22T03:15:27.122Z,26.41
2023-05-22T03:16:27.274Z,26.41
2023-05-22T03:17:27.171Z,26.41
2023-05-22T03:18:27.709Z,26.40
2023-05-22T03:19:27.418Z,26.43
2023-05-22T03:20:27.234Z,26.41
2023-05-22T03:21:27.257Z,26.43
2023-05-22T03:22:27.344Z,26.41
2023-05-22T03:23:27.346Z,26.40
2023-05-22T03:24:27.351Z,26.40
2023-05-22T03:25:27.435Z,26.40
2023-05-22T03:26:27.425Z,26.41
2023-05-22T03:27:27.459Z,26.40
2023-05-22T03:28:27.501Z,26.40
2023-05-22T03:29:28.293Z,26.40
2023-05-22T03:30:27.582Z,26.38
2023-05-22T03:31:27.612Z,26.40
2023-05-22T03:32:27.681Z,26.38
2023-05-22T03:33:27.705Z,26.38
2023-05-22T03:34:27.717Z,26.40
2023-05-22T03:35:27.774Z,26.37
2023-05-22T03:36:27.826Z,26.38
2023-05-22T03:37:27.836Z,26.37
2023-05-22T03:38:27.868Z,26.38
2023-05-22T03:39:27.905Z,26.40
2023-05-22T03:40:27.933Z,26.38
2023-05-22T03:41:28.010Z,26.40
2023-05-22T03:42:28.021Z,26.37
2023-05-22T03:43:28.082Z,26.37
2023-05-22T03:44:28.117Z,26.38
2023-05-22T03:45:28.142Z,26.38
2023-05-22T03:46:28.228Z,26.38
2023-05-22T03:47:28.234Z,26.40
2023-05-22T03:48:28.273Z,26.38
2023-05-22T03:49:28.315Z,26.38
2023-05-22T03:50:28.359Z,26.37
2023-05-22T03:51:28.414Z,26.37
2023-05-22T03:52:28.447Z,26.37
2023-05-22T03:53:28.485Z,26.38
2023-05-22T03:54:28.535Z,26.41
2023-05-22T03:55:28.579Z,26.36
2023-05-22T03:56:28.627Z,26.37
2023-05-22T03:57:29.536Z,26.38
2023-05-22T03:58:28.706Z,26.37
2023-05-22T03:59:28.747Z,26.37
2023-05-22T04:00:28.808Z,26.37
2023-05-22T04:01:28.843Z,26.37
2023-05-22T04:02:28.999Z,26.38
2023-05-22T04:03:29.024Z,26.36
2023-05-22T04:04:28.952Z,26.38
2023-05-22T04:05:29.053Z,26.38
2023-05-22T04:06:29.031Z,26.37
2023-05-22T04:07:29.083Z,26.38
2023-05-22T04:08:29.129Z,26.36
2023-05-22T04:09:29.177Z,26.37
2023-05-22T04:10:29.192Z,26.37
2023-05-22T04:11:29.221Z,26.36
2023-05-22T04:12:28.256Z,26.37
2023-05-22T04:13:29.330Z,26.38
2023-05-22T04:14:29.328Z,26.37
2023-05-22T04:15:29.369Z,26.37
2023-05-22T04:16:29.426Z,26.36
2023-05-22T04:17:29.473Z,26.37
2023-05-22T04:18:29.486Z,26.37
2023-05-22T04:19:29.659Z,26.36
2023-05-22T04:20:29.559Z,26.38
2023-05-22T04:21:29.594Z,26.37
2023-05-22T04:22:29.646Z,26.37
2023-05-22T04:23:29.714Z,26.36
2023-05-22T04:24:29.719Z,26.34
2023-05-22T04:25:29.767Z,26.37
2023-05-22T04:26:29.813Z,26.36
2023-05-22T04:27:29.855Z,26.38
2023-05-22T04:28:29.910Z,26.37
2023-05-22T04:29:29.984Z,26.38
2023-05-22T04:30:29.993Z,26.37
2023-05-22T04:31:30.095Z,26.37
2023-05-22T04:32:30.126Z,26.37
2023-05-22T04:33:30.124Z,26.37
2023-05-22T04:34:30.184Z,26.37
2023-05-22T04:35:30.212Z,26.37
2023-05-22T04:36:30.257Z,26.37
2023-05-22T04:37:30.306Z,26.37
2023-05-22T04:38:30.360Z,26.37
2023-05-22T04:39:30.390Z,26.37
2023-05-22T04:40:30.512Z,26.38
2023-05-22T04:41:30.482Z,26.38
2023-05-22T04:42:30.535Z,26.37
2023-05-22T04:43:30.564Z,26.38
2023-05-22T04:44:30.615Z,26.38
2023-05-22T04:45:30.747Z,26.34
2023-05-22T04:46:30.740Z,26.36
2023-05-22T04:47:30.764Z,26.37
2023-05-22T04:48:30.784Z,26.37
2023-05-22T04:49:30.832Z,26.40
2023-05-22T04:50:30.880Z,26.38
2023-05-22T04:51:30.935Z,26.40
2023-05-22T04:52:30.976Z,26.37
2023-05-22T04:53:31.011Z,26.37
2023-05-22T04:54:31.045Z,26.38
2023-05-22T04:55:31.102Z,26.37
2023-05-22T04:56:36.867Z,26.38
2023-05-22T04:57:31.124Z,26.37
2023-05-22T04:58:31.116Z,26.41
2023-05-22T04:59:31.118Z,26.40
2023-05-22T05:00:31.099Z,26.38
2023-05-22T05:01:33.207Z,26.38
2023-05-22T05:02:31.147Z,26.40
2023-05-22T05:03:31.146Z,26.40
2023-05-22T05:04:31.069Z,26.38
2023-05-22T05:05:31.056Z,26.34
2023-05-22T05:06:31.059Z,26.38
2023-05-22T05:07:31.044Z,26.38
2023-05-22T05:08:31.051Z,26.40
2023-05-22T05:09:31.036Z,26.38
2023-05-22T05:10:31.020Z,26.38
2023-05-22T05:11:31.021Z,26.37
2023-05-22T05:12:30.997Z,26.38
2023-05-22T05:13:31.002Z,26.41
2023-05-22T05:14:31.050Z,26.41
2023-05-22T05:15:30.985Z,26.37
2023-05-22T05:16:31.014Z,26.40
2023-05-22T05:17:31.134Z,26.40
2023-05-22T05:18:30.960Z,26.40
2023-05-22T05:19:30.984Z,26.41
2023-05-22T05:20:30.953Z,26.41
2023-05-22T05:21:30.960Z,26.40
2023-05-22T05:22:30.942Z,26.40
2023-05-22T05:23:30.945Z,26.40
2023-05-22T05:24:31.909Z,26.41
2023-05-22T05:25:30.904Z,26.41
2023-05-22T05:26:30.901Z,26.43
2023-05-22T05:27:31.026Z,26.44
2023-05-22T05:28:30.895Z,26.45
2023-05-22T05:29:31.517Z,26.44
2023-05-22T05:30:31.101Z,26.45
2023-05-22T05:31:31.060Z,26.47
2023-05-22T05:32:31.006Z,26.45
2023-05-22T05:33:31.106Z,26.50
2023-05-22T05:34:31.005Z,26.48
2023-05-22T05:35:31.589Z,26.51
2023-05-22T05:36:31.057Z,26.51
2023-05-22T05:37:31.084Z,26.54
2023-05-22T05:38:31.096Z,26.52
2023-05-22T05:39:31.123Z,26.52
2023-05-22T05:40:31.148Z,26.54
2023-05-22T05:41:31.163Z,26.55
2023-05-22T05:42:31.195Z,26.55
2023-05-22T05:43:31.239Z,26.58
2023-05-22T05:44:31.559Z,26.58
2023-05-22T05:45:31.247Z,26.58
2023-05-22T05:46:31.344Z,26.59
2023-05-22T05:47:32.656Z,26.59
2023-05-22T05:48:32.312Z,26.59
2023-05-22T05:49:33.057Z,26.59
2023-05-22T05:50:31.341Z,26.59
2023-05-22T05:51:31.314Z,26.64
2023-05-22T05:52:31.541Z,26.64
2023-05-22T05:53:32.301Z,26.65
2023-05-22T05:54:34.554Z,26.65
2023-05-22T05:56:31.288Z,26.67
2023-05-22T05:58:03.181Z,26.65
2023-05-22T05:58:38.679Z,26.70
2023-05-22T05:59:31.287Z,26.72
2023-05-22T06:01:03.106Z,26.72
2023-05-22T06:02:49.672Z,26.78
2023-05-22T06:05:49.447Z,26.83
2023-05-22T06:07:05.792Z,26.86
2023-05-22T06:07:53.392Z,26.88
2023-05-22T06:09:21.979Z,26.90
2023-05-22T06:09:50.183Z,26.93
2023-05-22T06:11:57.584Z,26.96
2023-05-22T06:12:53.357Z,27.00
2023-05-22T06:13:50.166Z,27.03
2023-05-22T06:14:57.770Z,27.02
2023-05-22T06:16:06.855Z,27.05
2023-05-22T06:16:53.474Z,27.06
2023-05-22T06:17:50.372Z,27.07
2023-05-22T06:18:50.232Z,27.14
2023-05-22T06:19:50.281Z,27.14
2023-05-22T06:20:50.101Z,27.16
2023-05-22T06:22:05.990Z,27.14
2023-05-22T06:22:50.103Z,27.17
2023-05-22T06:23:50.086Z,27.22
2023-05-22T06:24:50.088Z,27.22
2023-05-22T06:25:53.277Z,27.23
2023-05-22T06:26:53.593Z,27.23
2023-05-22T06:27:50.051Z,27.26
2023-05-22T06:28:50.046Z,27.29
2023-05-22T06:29:50.041Z,27.32
2023-05-22T06:30:50.085Z,27.33
2023-05-22T06:31:50.022Z,27.33
2023-05-22T06:32:50.517Z,27.36
2023-05-22T06:33:50.114Z,27.34
2023-05-22T06:34:50.038Z,27.37
2023-05-22T06:35:50.019Z,27.41
2023-05-22T06:36:50.524Z,27.41
2023-05-22T06:37:50.141Z,27.44
2023-05-22T06:38:50.000Z,27.45
2023-05-22T06:39:57.368Z,27.44
2023-05-22T06:40:49.960Z,27.44
2023-05-22T06:41:50.468Z,27.45
2023-05-22T06:42:49.993Z,27.48
2023-05-22T06:43:49.954Z,27.48
2023-05-22T06:44:50.947Z,27.50
2023-05-22T06:45:49.959Z,27.52
2023-05-22T06:46:49.947Z,27.55
2023-05-22T06:47:50.398Z,27.55
2023-05-22T06:48:49.934Z,27.58
2023-05-22T06:49:49.929Z,27.58
2023-05-22T06:50:50.002Z,27.59
2023-05-22T06:51:50.002Z,27.62
2023-05-22T06:52:50.392Z,27.62
2023-05-22T06:53:50.203Z,27.59
2023-05-22T06:54:50.009Z,27.65
2023-05-22T06:55:50.004Z,27.68
2023-05-22T06:56:49.980Z,27.69
2023-05-22T06:57:49.894Z,27.68
2023-05-22T06:58:49.895Z,27.71
2023-05-22T06:59:50.054Z,27.72
2023-05-22T07:00:50.359Z,27.72
2023-05-22T07:01:50.034Z,27.72
2023-05-22T07:02:50.688Z,27.73
2023-05-22T07:03:49.932Z,27.76
2023-05-22T07:04:53.092Z,27.76
2023-05-22T07:05:57.387Z,27.79
2023-05-22T07:06:49.881Z,27.81
2023-05-22T07:07:51.024Z,27.81
2023-05-22T07:08:53.455Z,27.84
2023-05-22T07:09:50.158Z,27.82
2023-05-22T07:10:50.677Z,27.84
2023-05-22T07:11:49.845Z,27.86
2023-05-22T07:12:49.917Z,27.91
2023-05-22T07:13:49.839Z,27.91
2023-05-22T07:14:49.814Z,27.91
2023-05-22T07:15:49.805Z,27.92
2023-05-22T07:16:49.822Z,27.92
2023-05-22T07:17:50.018Z,27.96
2023-05-22T07:18:49.945Z,27.96
2023-05-22T07:19:49.786Z,27.95
2023-05-22T07:20:49.783Z,27.99
2023-05-22T07:21:49.774Z,27.97
2023-05-22T07:22:49.768Z,28.00
2023-05-22T07:23:49.905Z,28.02
2023-05-22T07:24:50.181Z,28.00
2023-05-22T07:25:49.952Z,28.03
2023-05-22T07:26:50.002Z,28.03
2023-05-22T07:27:49.962Z,28.06
2023-05-22T07:28:50.435Z,28.04
2023-05-22T07:29:50.082Z,28.09
2023-05-22T07:30:50.143Z,28.04
2023-05-22T07:31:57.700Z,28.07
2023-05-22T07:32:50.235Z,28.06
2023-05-22T07:33:50.479Z,28.09
2023-05-22T07:34:51.178Z,28.09
2023-05-22T07:35:50.200Z,28.12
2023-05-22T07:36:50.161Z,28.13
2023-05-22T07:37:50.160Z,28.12
2023-05-22T07:40:05.805Z,28.12
2023-05-22T07:40:57.585Z,28.13
2023-05-22T07:41:50.231Z,28.16
2023-05-22T07:42:50.552Z,28.16
2023-05-22T07:44:06.032Z,28.17
2023-05-22T07:44:52.288Z,28.17
2023-05-22T07:45:50.121Z,28.17
2023-05-22T07:46:57.557Z,28.19
2023-05-22T07:47:50.496Z,28.20
2023-05-22T07:48:50.121Z,28.20
2023-05-22T07:49:50.415Z,28.20
2023-05-22T07:50:51.073Z,28.20
2023-05-22T07:51:50.055Z,28.21
2023-05-22T07:52:53.082Z,28.23
2023-05-22T07:53:50.050Z,28.23
2023-05-22T07:54:53.636Z,28.26
2023-05-22T07:55:57.524Z,28.24
2023-05-22T07:57:05.624Z,28.26
2023-05-22T07:57:50.033Z,28.23
2023-05-22T07:58:51.466Z,28.20
2023-05-22T07:59:50.031Z,28.20
2023-05-22T08:00:50.094Z,28.17
2023-05-22T08:01:50.207Z,28.14
2023-05-22T08:02:50.475Z,28.16
2023-05-22T08:03:50.635Z,28.10
2023-05-22T08:04:50.509Z,28.09
2023-05-22T08:05:50.358Z,28.07
2023-05-22T08:06:50.872Z,28.07
2023-05-22T08:07:50.337Z,28.03
2023-05-22T08:08:50.426Z,28.03
2023-05-22T08:09:50.200Z,28.02
2023-05-22T08:11:03.009Z,28.00
2023-05-22T08:11:53.482Z,27.99
2023-05-22T08:12:57.588Z,27.97
2023-05-22T08:13:50.429Z,27.97
2023-05-22T08:14:50.169Z,27.96
2023-05-22T08:15:50.163Z,27.95
2023-05-22T08:16:50.254Z,27.95
2023-05-22T08:17:50.184Z,27.95
2023-05-22T08:18:50.469Z,27.93
2023-05-22T08:19:50.231Z,27.93
2023-05-22T08:20:50.128Z,27.92
2023-05-22T08:21:50.122Z,27.93
2023-05-22T08:22:50.261Z,27.91
2023-05-22T08:23:50.445Z,27.91
2023-05-22T08:24:50.104Z,27.88
2023-05-22T08:25:50.133Z,27.88
2023-05-22T08:26:50.089Z,27.92
2023-05-22T08:27:50.107Z,27.89
2023-05-22T08:28:50.452Z,27.88
2023-05-22T08:29:50.071Z,27.88
2023-05-22T08:30:50.057Z,27.88
2023-05-22T08:31:50.162Z,27.85
2023-05-22T08:32:50.490Z,27.86
2023-05-22T08:33:50.054Z,27.85
2023-05-22T08:34:50.042Z,27.84
2023-05-22T08:35:50.022Z,27.85
2023-05-22T08:36:50.027Z,27.85
2023-05-22T08:37:50.011Z,27.84
2023-05-22T08:38:50.573Z,27.81
2023-05-22T08:39:50.019Z,27.78
2023-05-22T08:40:50.139Z,27.78
2023-05-22T08:41:50.057Z,27.73
2023-05-22T08:43:05.615Z,27.73
2023-05-22T08:44:57.368Z,27.71
2023-05-22T08:45:49.972Z,27.72
2023-05-22T08:46:49.988Z,27.72
2023-05-22T08:47:50.475Z,27.75
2023-05-22T08:48:49.947Z,27.76
2023-05-22T08:49:50.048Z,27.78
2023-05-22T08:50:51.042Z,27.79
2023-05-22T08:51:49.917Z,27.81
2023-05-22T08:52:49.944Z,27.84
2023-05-22T08:53:49.901Z,27.85
2023-05-22T08:54:49.890Z,27.88
2023-05-22T08:55:49.883Z,27.89
2023-05-22T08:56:56.667Z,27.92
2023-05-22T08:57:49.951Z,27.91
2023-05-22T08:58:49.927Z,27.95
2023-05-22T08:59:50.076Z,27.95
2023-05-22T09:00:49.942Z,27.96
2023-05-22T09:01:49.844Z,27.96
2023-05-22T09:02:50.135Z,27.96
2023-05-22T09:03:49.986Z,28.00
2023-05-22T09:04:53.053Z,28.02
2023-05-22T09:05:49.806Z,28.03
2023-05-22T09:06:50.452Z,28.04
2023-05-22T09:07:49.960Z,28.06
2023-05-22T09:08:51.468Z,28.07
2023-05-22T09:09:49.958Z,28.07
2023-05-22T09:10:49.787Z,28.09
2023-05-22T09:11:50.963Z,28.10
2023-05-22T09:12:49.771Z,28.12
2023-05-22T09:13:50.087Z,28.12
2023-05-22T09:14:50.100Z,28.14
2023-05-22T09:15:50.776Z,28.16
2023-05-22T09:16:51.126Z,28.16
2023-05-22T09:17:50.106Z,28.20
2023-05-22T09:18:49.909Z,28.17
2023-05-22T09:19:49.948Z,28.19
2023-05-22T09:20:50.470Z,28.19
2023-05-22T09:21:51.452Z,28.21
2023-05-22T09:22:50.103Z,28.21
2023-05-22T09:23:53.379Z,28.23
2023-05-22T09:24:50.158Z,28.24
2023-05-22T09:25:50.866Z,28.24
2023-05-22T09:26:50.465Z,28.26
2023-05-22T09:27:50.133Z,28.24
2023-05-22T09:28:50.484Z,28.26
2023-05-22T09:29:50.122Z,28.26
2023-05-22T09:30:50.219Z,28.27
2023-05-22T09:31:50.386Z,28.27
2023-05-22T09:33:21.900Z,28.23
2023-05-22T09:33:50.476Z,28.21
2023-05-22T09:34:50.084Z,28.24
2023-05-22T09:35:53.685Z,28.23
2023-05-22T09:36:50.085Z,28.24
2023-05-22T09:37:53.334Z,28.26
2023-05-22T09:38:57.511Z,28.23
2023-05-22T09:39:53.319Z,28.27
2023-05-22T09:40:53.665Z,28.28
2023-05-22T09:42:05.658Z,28.28
2023-05-22T09:43:05.672Z,28.31
2023-05-22T09:43:50.488Z,28.33
2023-05-22T09:44:57.431Z,28.36
2023-05-22T09:45:57.740Z,28.38
2023-05-22T09:46:50.582Z,28.37
2023-05-22T09:47:50.081Z,28.40
2023-05-22T09:48:53.315Z,28.44
2023-05-22T09:49:49.988Z,28.44
2023-05-22T09:50:49.983Z,28.48
2023-05-22T09:51:49.964Z,28.50
2023-05-22T09:52:50.480Z,28.50
2023-05-22T09:53:50.491Z,28.50
2023-05-22T09:54:50.056Z,28.54
2023-05-22T09:55:50.049Z,28.52
2023-05-22T09:56:50.211Z,28.55
2023-05-22T09:57:50.031Z,28.57
2023-05-22T09:58:53.156Z,28.55
2023-05-22T09:59:49.925Z,28.57
2023-05-22T10:00:49.927Z,28.61
2023-05-22T10:01:50.282Z,28.59
2023-05-22T10:02:50.170Z,28.61
2023-05-22T10:03:50.120Z,28.64
2023-05-22T10:04:50.176Z,28.65
2023-05-22T10:05:50.102Z,28.65
2023-05-22T10:06:50.130Z,28.66
2023-05-22T10:07:49.992Z,28.71
2023-05-22T10:08:49.868Z,28.69
2023-05-22T10:09:50.329Z,28.71
2023-05-22T10:10:49.867Z,28.74
2023-05-22T10:11:51.151Z,28.74
2023-05-22T10:12:50.486Z,28.76
2023-05-22T10:13:50.109Z,28.78
2023-05-22T10:14:50.498Z,28.78
2023-05-22T10:15:50.134Z,28.78
2023-05-22T10:16:49.828Z,28.81
2023-05-22T10:17:50.219Z,28.78
2023-05-22T10:18:49.871Z,28.82
2023-05-22T10:19:49.827Z,28.83
2023-05-22T10:20:49.791Z,28.82
2023-05-22T10:21:49.809Z,28.85
2023-05-22T10:22:50.800Z,28.85
2023-05-22T10:23:49.825Z,28.83
2023-05-22T10:24:50.499Z,28.88
2023-05-22T10:25:50.139Z,28.89
2023-05-22T10:26:50.124Z,28.86
2023-05-22T10:27:50.506Z,28.89
2023-05-22T10:28:50.117Z,28.83
2023-05-22T10:29:50.156Z,28.78
2023-05-22T10:30:50.117Z,28.75
2023-05-22T10:31:50.121Z,28.72
2023-05-22T10:32:50.153Z,28.65
2023-05-22T10:33:50.699Z,28.59
2023-05-22T10:34:50.191Z,28.57
2023-05-22T10:35:50.242Z,28.52
2023-05-22T10:36:50.288Z,28.46
2023-05-22T10:37:50.335Z,28.47
2023-05-22T10:38:50.395Z,28.41
2023-05-22T10:39:50.451Z,28.40
2023-05-22T10:40:51.001Z,28.37
2023-05-22T10:41:50.563Z,28.37
2023-05-22T10:42:50.608Z,28.36
2023-05-22T10:43:50.665Z,28.38
2023-05-22T10:44:50.700Z,28.38
2023-05-22T10:45:50.799Z,28.40
2023-05-22T10:46:51.513Z,28.41
2023-05-22T10:47:50.846Z,28.46
2023-05-22T10:48:50.839Z,28.47
2023-05-22T10:49:51.139Z,28.47
2023-05-22T10:50:50.882Z,28.50
2023-05-22T10:51:50.895Z,28.54
2023-05-22T10:52:50.912Z,28.52
2023-05-22T10:53:50.926Z,28.58
2023-05-22T10:54:50.937Z,28.61
2023-05-22T10:55:50.948Z,28.58
2023-05-22T10:56:50.946Z,28.59
2023-05-22T10:57:49.956Z,28.64
2023-05-22T10:58:50.981Z,28.65
2023-05-22T10:59:50.976Z,28.65
2023-05-22T11:00:50.968Z,28.66
2023-05-22T11:01:50.993Z,28.68
2023-05-22T11:02:51.051Z,28.68
2023-05-22T11:03:51.017Z,28.71
2023-05-22T11:04:51.022Z,28.71
2023-05-22T11:05:54.280Z,28.72
2023-05-22T11:06:58.372Z,28.71
2023-05-22T11:07:51.024Z,28.75
2023-05-22T11:08:51.605Z,28.76
2023-05-22T11:09:50.938Z,28.76
2023-05-22T11:10:50.916Z,28.75
2023-05-22T11:11:51.902Z,28.78
2023-05-22T11:12:51.025Z,28.79
2023-05-22T11:13:50.892Z,28.79
2023-05-22T11:14:51.028Z,28.81
2023-05-22T11:15:51.311Z,28.81
2023-05-22T11:16:50.903Z,28.83
2023-05-22T11:17:50.960Z,28.81
2023-05-22T11:18:51.586Z,28.83
2023-05-22T11:19:51.080Z,28.85
2023-05-22T11:20:50.853Z,28.86
2023-05-22T11:21:50.964Z,28.89
2023-05-22T11:22:51.041Z,28.89
2023-05-22T11:23:54.025Z,28.90
2023-05-22T11:24:51.532Z,28.92
2023-05-22T11:25:55.387Z,28.96
2023-05-22T11:26:51.047Z,28.96
2023-05-22T11:27:50.998Z,28.95
2023-05-22T11:28:51.055Z,28.99
2023-05-22T11:29:51.535Z,28.99
2023-05-22T11:30:51.170Z,29.00
2023-05-22T11:31:51.219Z,29.02
2023-05-22T11:32:54.486Z,29.05
2023-05-22T11:33:51.531Z,29.06
2023-05-22T11:34:51.229Z,29.06
2023-05-22T11:35:51.252Z,29.09
2023-05-22T11:36:51.228Z,29.09
2023-05-22T11:37:51.427Z,29.10
2023-05-22T11:38:51.211Z,29.14
2023-05-22T11:39:51.217Z,29.11
2023-05-22T11:40:51.194Z,29.14
2023-05-22T11:41:51.230Z,29.14
2023-05-22T11:42:51.181Z,29.14
2023-05-22T11:43:51.173Z,29.17
2023-05-22T11:44:51.169Z,29.16
2023-05-22T11:45:51.171Z,29.17
2023-05-22T11:46:51.213Z,29.18
2023-05-22T11:47:51.244Z,29.20
2023-05-22T11:48:51.573Z,29.21
2023-05-22T11:49:51.140Z,29.18
2023-05-22T11:50:51.136Z,29.24
2023-05-22T11:51:51.133Z,29.24
2023-05-22T11:52:51.103Z,29.24
2023-05-22T11:53:51.676Z,29.26
2023-05-22T11:54:51.086Z,29.28
2023-05-22T11:55:51.121Z,29.27
2023-05-22T11:56:51.102Z,29.28
2023-05-22T11:57:51.548Z,29.27
2023-05-22T11:58:51.188Z,29.31
2023-05-22T11:59:51.225Z,29.31
2023-05-22T12:00:51.301Z,29.33
2023-05-22T12:02:23.393Z,29.34
2023-05-22T12:02:51.657Z,29.33
2023-05-22T12:03:51.421Z,29.35
2023-05-22T12:04:51.264Z,29.35
2023-05-22T12:05:51.280Z,29.35
2023-05-22T12:06:51.757Z,29.40
2023-05-22T12:07:52.249Z,29.41
2023-05-22T12:08:51.548Z,29.41
2023-05-22T12:09:51.357Z,29.45
2023-05-22T12:10:58.957Z,29.45
2023-05-22T12:11:51.223Z,29.48
2023-05-22T12:12:51.544Z,29.45
2023-05-22T12:13:51.207Z,29.45
2023-05-22T12:14:51.216Z,29.50
2023-05-22T12:15:51.198Z,29.48
2023-05-22T12:16:51.267Z,29.50
2023-05-22T12:17:51.237Z,29.52
2023-05-22T12:18:51.590Z,29.54
2023-05-22T12:19:51.162Z,29.55
2023-05-22T12:20:51.171Z,29.57
2023-05-22T12:21:51.154Z,29.58
2023-05-22T12:22:51.155Z,29.58
2023-05-22T12:23:51.577Z,29.58
2023-05-22T12:24:51.120Z,29.62
2023-05-22T12:25:51.245Z,29.62
2023-05-22T12:26:51.115Z,29.60
2023-05-22T12:27:51.372Z,29.65
2023-05-22T12:28:51.556Z,29.62
2023-05-22T12:29:51.193Z,29.61
2023-05-22T12:30:51.607Z,29.64
2023-05-22T12:31:51.278Z,29.65
2023-05-22T12:32:51.631Z,29.65
2023-05-22T12:33:51.068Z,29.68
2023-05-22T12:34:51.067Z,29.67
2023-05-22T12:35:51.074Z,29.68
2023-05-22T12:36:51.056Z,29.67
2023-05-22T12:37:51.222Z,29.67
2023-05-22T12:38:51.150Z,29.68
2023-05-22T12:39:51.565Z,29.69
2023-05-22T12:40:51.121Z,29.72
2023-05-22T12:41:51.072Z,29.73
2023-05-22T12:42:51.100Z,29.73
2023-05-22T12:43:51.158Z,29.73
2023-05-22T12:44:51.213Z,29.75
2023-05-22T12:45:51.307Z,29.76
2023-05-22T12:46:51.389Z,29.75
2023-05-22T12:47:51.631Z,29.79
2023-05-22T12:48:51.432Z,29.78
2023-05-22T12:49:51.536Z,29.79
2023-05-22T12:50:51.572Z,29.80
2023-05-22T12:51:51.636Z,29.83
2023-05-22T12:52:52.072Z,29.83
2023-05-22T12:53:51.770Z,29.82
2023-05-22T12:54:52.223Z,29.82
2023-05-22T12:55:52.221Z,29.83
2023-05-22T12:56:52.228Z,29.83
2023-05-22T12:57:52.343Z,29.82
2023-05-22T12:58:52.584Z,29.80
2023-05-22T12:59:52.216Z,29.80